Time;durP1;ratioP1;P1;durP2;ratioP2;P2;SDS_P1;SDS_P2;PMS_P1;PMS_P2;Temp;Humidity;BMP_temperature;BMP_pressure;BME280_temperature;BME280_humidity;BME280_pressure;Samples;Min_cycle;Max_cycle;Signal;HPM_P1;HPM_P2
2022/06/20 00:02:21;;;;;;;7.78;3.60;;;21.90;99.90;;;;;;4995440;28;20260;-63
2022/06/20 00:04:51;;;;;;;6.47;3.17;;;21.90;99.90;;;;;;4992283;28;20245;-63
2022/06/20 00:07:21;;;;;;;7.80;3.47;;;21.90;99.90;;;;;;5000779;28;20205;-63
2022/06/20 00:09:49;;;;;;;7.20;3.00;;;21.90;99.90;;;;;;4998142;28;20209;-63
2022/06/20 00:12:22;;;;;;;4.25;2.85;;;21.80;99.90;;;;;;4997703;28;20713;-63
2022/06/20 00:14:54;;;;;;;4.25;3.00;;;21.70;99.90;;;;;;4996623;28;20202;-63
2022/06/20 00:17:22;;;;;;;5.63;2.85;;;21.80;99.90;;;;;;4998832;28;20285;-64
2022/06/20 00:19:51;;;;;;;8.85;3.58;;;21.80;99.90;;;;;;4997360;28;20206;-63
2022/06/20 00:22:20;;;;;;;6.13;3.10;;;21.80;99.90;;;;;;4997850;28;20225;-64
2022/06/20 00:24:48;;;;;;;6.05;3.05;;;21.70;99.90;;;;;;5000638;28;20663;-64
2022/06/20 00:27:16;;;;;;;7.07;2.97;;;21.60;99.90;;;;;;4995432;28;20233;-64
2022/06/20 00:29:45;;;;;;;6.00;3.25;;;21.60;99.90;;;;;;4997650;28;20210;-63
2022/06/20 00:32:13;;;;;;;5.57;3.47;;;21.70;99.90;;;;;;4996171;28;20588;-64
2022/06/20 00:34:41;;;;;;;5.13;3.30;;;21.80;99.90;;;;;;5000153;28;20682;-64
2022/06/20 00:37:16;;;;;;;8.05;3.80;;;21.80;99.90;;;;;;5000511;28;20232;-63
2022/06/20 00:39:45;;;;;;;9.65;4.40;;;21.80;99.90;;;;;;5001080;28;20687;-62
2022/06/20 00:42:13;;;;;;;6.47;4.05;;;22.00;99.90;;;;;;4999949;28;20257;-63
2022/06/20 00:44:45;;;;;;;6.20;3.70;;;22.00;99.90;;;;;;4998304;28;20225;-63
2022/06/20 00:47:17;;;;;;;6.40;4.95;;;21.80;99.90;;;;;;5006760;28;20240;-63
2022/06/20 00:49:50;;;;;;;10.20;4.10;;;21.60;99.90;;;;;;5000744;28;20205;-63
2022/06/20 00:52:23;;;;;;;5.03;3.80;;;21.40;99.90;;;;;;5004018;28;20201;-63
2022/06/20 00:54:58;;;;;;;5.80;3.78;;;21.30;99.90;;;;;;5000417;28;20197;-63
2022/06/20 00:57:31;;;;;;;12.75;4.85;;;21.20;99.90;;;;;;5001785;28;20300;-63
2022/06/20 01:00:05;;;;;;;8.68;4.22;;;21.20;99.90;;;;;;5002922;28;20241;-63
2022/06/20 01:02:39;;;;;;;7.80;4.00;;;21.10;99.90;;;;;;5002688;28;20285;-63
2022/06/20 01:05:13;;;;;;;6.93;4.30;;;21.00;99.90;;;;;;5000203;28;20280;-63
2022/06/20 01:07:47;;;;;;;7.10;3.67;;;21.00;99.90;;;;;;5001058;28;20253;-63
2022/06/20 01:10:19;;;;;;;8.15;4.20;;;21.00;99.90;;;;;;5001731;28;20752;-62
2022/06/20 01:12:54;;;;;;;6.18;3.25;;;21.10;99.90;;;;;;5004401;28;20294;-62
2022/06/20 01:15:24;;;;;;;6.40;3.60;;;21.30;99.90;;;;;;5001573;28;20301;-62
2022/06/20 01:17:52;;;;;;;6.72;4.10;;;21.60;99.90;;;;;;4998018;28;20260;-63
2022/06/20 01:20:25;;;;;;;8.07;3.70;;;21.80;99.90;;;;;;5004827;28;20304;-62
2022/06/20 01:23:05;;;;;;;5.03;3.83;;;21.80;99.90;;;;;;5004492;28;20205;-63
2022/06/20 01:26:09;;;;;;;8.50;3.72;;;22.00;99.90;;;;;;5002133;28;20216;-62
2022/06/20 01:28:41;;;;;;;8.25;3.50;;;22.10;99.90;;;;;;5000367;28;20237;-63
2022/06/20 01:31:11;;;;;;;7.20;3.65;;;22.10;99.90;;;;;;4996410;28;20311;-63
2022/06/20 01:33:40;;;;;;;6.45;3.50;;;21.90;99.90;;;;;;5000466;28;20213;-62
2022/06/20 01:39:01;;;;;;;4.45;2.42;;;21.50;99.90;;;;;;4966945;28;20199;-62
2022/06/20 01:44:19;;;;;;;6.50;2.45;;;20.80;99.90;;;;;;5002822;28;20243;-64
2022/06/20 01:46:47;;;;;;;9.32;2.90;;;20.60;99.90;;;;;;4997651;28;20243;-64
2022/06/20 01:49:19;;;;;;;5.38;2.90;;;20.50;99.90;;;;;;5000124;28;20293;-64
2022/06/20 01:51:52;;;;;;;6.95;2.83;;;20.30;99.90;;;;;;5002436;28;20301;-64
2022/06/20 01:54:22;;;;;;;15.45;2.97;;;20.10;99.90;;;;;;5002151;28;20233;-64
2022/06/20 01:56:52;;;;;;;8.30;2.50;;;20.10;99.90;;;;;;4997620;28;20210;-63
2022/06/20 01:59:26;;;;;;;10.93;2.47;;;20.00;99.90;;;;;;4996523;28;20579;-65
2022/06/20 02:01:54;;;;;;;5.07;2.10;;;20.00;99.90;;;;;;5000069;28;20300;-64
2022/06/20 02:04:26;;;;;;;5.72;2.95;;;19.90;99.90;;;;;;4999023;28;20228;-64
2022/06/20 02:06:55;;;;;;;9.02;3.35;;;19.80;99.90;;;;;;4999067;28;20233;-64
2022/06/20 02:09:23;;;;;;;10.93;3.10;;;19.70;99.90;;;;;;5004890;28;20209;-64
2022/06/20 02:11:51;;;;;;;8.48;2.88;;;19.60;99.90;;;;;;5005957;28;20940;-64
2022/06/20 02:14:27;;;;;;;4.40;3.03;;;19.50;99.90;;;;;;4997475;28;20213;-63
2022/06/20 02:16:57;;;;;;;8.25;2.60;;;19.50;99.90;;;;;;5002955;28;20228;-63
2022/06/20 02:19:30;;;;;;;8.07;3.17;;;19.50;99.90;;;;;;5010260;28;20205;-63
2022/06/20 02:22:01;;;;;;;10.30;3.08;;;19.60;99.90;;;;;;5003727;28;20726;-64
2022/06/20 02:24:33;;;;;;;7.15;3.30;;;19.60;99.90;;;;;;5000614;28;20241;-64
2022/06/20 02:27:04;;;;;;;8.57;3.03;;;19.60;99.90;;;;;;5002310;28;20255;-64
2022/06/20 02:29:33;;;;;;;4.97;2.30;;;19.60;99.90;;;;;;4995465;28;20197;-64
2022/06/20 02:32:07;;;;;;;6.78;3.08;;;19.70;99.90;;;;;;4996374;28;20321;-64
2022/06/20 02:34:35;;;;;;;4.60;2.42;;;19.80;99.90;;;;;;4999198;28;20261;-63
2022/06/20 02:37:09;;;;;;;5.25;2.80;;;19.70;99.90;;;;;;5000408;28;20233;-64
2022/06/20 02:39:38;;;;;;;3.45;1.88;;;19.70;99.90;;;;;;4997125;28;20209;-64
2022/06/20 02:42:10;;;;;;;8.50;3.40;;;19.70;99.90;;;;;;4994975;28;20717;-64
2022/06/20 02:44:43;;;;;;;6.63;3.13;;;19.70;99.90;;;;;;4999170;28;20257;-64
2022/06/20 02:47:11;;;;;;;5.90;3.38;;;19.70;99.90;;;;;;4995725;28;20769;-64
2022/06/20 02:49:41;;;;;;;8.15;3.08;;;19.80;99.90;;;;;;4999229;28;20260;-64
2022/06/20 02:52:14;;;;;;;7.57;2.67;;;19.80;99.90;;;;;;4999827;28;20708;-64
2022/06/20 02:54:43;;;;;;;6.20;3.40;;;19.80;99.90;;;;;;4995663;28;20194;-65
2022/06/20 02:57:14;;;;;;;8.30;4.00;;;19.90;99.90;;;;;;5004385;28;20217;-64
2022/06/20 02:59:49;;;;;;;14.98;10.30;;;19.90;99.90;;;;;;4999040;28;20217;-65
2022/06/20 03:02:21;;;;;;;17.45;9.77;;;19.80;99.90;;;;;;4995692;28;20307;-65
2022/06/20 03:04:49;;;;;;;14.70;8.63;;;19.90;99.90;;;;;;5000994;28;20201;-65
2022/06/20 03:07:22;;;;;;;20.52;9.60;;;19.90;99.90;;;;;;4998416;28;20340;-64
2022/06/20 03:09:56;;;;;;;13.95;6.57;;;19.90;99.90;;;;;;4996425;28;20617;-65
2022/06/20 03:12:23;;;;;;;17.30;6.78;;;19.80;99.90;;;;;;4998455;28;20225;-65
2022/06/20 03:14:56;;;;;;;10.70;6.70;;;19.90;99.90;;;;;;4997390;28;20210;-64
2022/06/20 03:17:24;;;;;;;12.40;5.90;;;19.90;99.90;;;;;;4996201;28;20204;-65
2022/06/20 03:19:57;;;;;;;9.40;5.78;;;19.90;99.90;;;;;;4998484;28;20212;-65
2022/06/20 03:22:29;;;;;;;8.52;5.55;;;20.00;99.90;;;;;;4994874;28;20202;-65
2022/06/20 03:25:03;;;;;;;9.93;6.55;;;20.10;99.90;;;;;;4999566;28;20231;-65
2022/06/20 03:27:34;;;;;;;11.63;6.95;;;20.00;99.90;;;;;;4998193;28;20599;-65
2022/06/20 03:30:21;;;;;;;14.43;7.28;;;20.10;99.90;;;;;;4996547;28;20336;-64
2022/06/20 03:32:49;;;;;;;14.20;9.23;;;20.00;99.90;;;;;;5000847;23;21936;-69
2022/06/20 03:35:18;;;;;;;15.13;7.90;;;20.00;99.90;;;;;;4974694;28;20230;-68
2022/06/20 03:37:46;;;;;;;19.38;7.68;;;19.90;99.90;;;;;;4971919;28;20227;-68
2022/06/20 03:40:15;;;;;;;13.75;7.90;;;19.80;99.90;;;;;;4970444;28;20256;-66
2022/06/20 03:42:44;;;;;;;13.32;9.60;;;19.70;99.90;;;;;;4950314;28;20759;-68
2022/06/20 03:45:15;;;;;;;14.68;8.98;;;19.70;99.90;;;;;;4958103;28;20282;-67
2022/06/20 03:47:46;;;;;;;13.00;8.15;;;19.70;99.90;;;;;;4957795;28;20206;-68
2022/06/20 03:50:20;;;;;;;13.50;9.23;;;19.70;99.90;;;;;;4961968;28;20202;-66
2022/06/20 03:52:53;;;;;;;10.95;6.97;;;19.70;99.90;;;;;;4961621;28;20279;-69
2022/06/20 03:55:29;;;;;;;7.90;4.40;;;19.70;99.90;;;;;;4953346;28;20206;-68
2022/06/20 03:58:01;;;;;;;9.38;3.40;;;19.70;99.90;;;;;;4956718;28;20306;-69
2022/06/20 04:00:36;;;;;;;12.43;5.03;;;19.60;99.90;;;;;;4962270;28;20269;-69
2022/06/20 04:03:11;;;;;;;6.57;3.67;;;19.60;99.90;;;;;;4954663;28;20415;-69
2022/06/20 04:05:46;;;;;;;5.10;3.30;;;19.60;99.90;;;;;;4975179;28;20211;-68
2022/06/20 04:08:18;;;;;;;6.00;3.10;;;19.50;99.90;;;;;;4974186;28;20237;-69
2022/06/20 04:10:58;;;;;;;6.65;3.13;;;19.50;99.90;;;;;;4972587;28;20266;-70
2022/06/20 04:13:32;;;;;;;6.97;3.95;;;19.50;99.90;;;;;;4954558;28;20229;-69
2022/06/20 04:16:05;;;;;;;7.93;3.75;;;19.40;99.90;;;;;;4971747;28;20634;-69
2022/06/20 04:18:38;;;;;;;6.68;3.22;;;19.40;99.90;;;;;;4957181;28;20207;-69
2022/06/20 04:21:18;;;;;;;7.80;2.50;;;19.50;99.90;;;;;;4971253;28;20210;-70
2022/06/20 04:23:53;;;;;;;4.05;2.17;;;19.40;99.90;;;;;;4966675;28;20754;-68
2022/06/20 04:26:26;;;;;;;4.63;2.10;;;19.40;99.90;;;;;;4971572;28;20202;-68
2022/06/20 04:28:59;;;;;;;4.63;2.17;;;19.40;99.90;;;;;;4961303;28;20310;-66
2022/06/20 04:31:39;;;;;;;5.35;2.53;;;19.30;99.90;;;;;;4955144;28;20211;-67
2022/06/20 04:34:15;;;;;;;7.47;2.42;;;19.30;99.90;;;;;;4933411;28;20676;-66
2022/06/20 04:36:51;;;;;;;2.55;1.60;;;19.30;99.90;;;;;;4937754;28;20239;-67
2022/06/20 04:39:24;;;;;;;3.88;1.88;;;19.40;99.90;;;;;;4929497;28;20242;-69
2022/06/20 04:41:59;;;;;;;7.30;2.63;;;19.50;99.90;;;;;;4939392;28;20345;-66
2022/06/20 04:44:35;;;;;;;5.75;2.80;;;19.40;99.90;;;;;;4936967;28;20501;-66
2022/06/20 04:47:17;;;;;;;5.20;2.70;;;19.40;99.90;;;;;;4938513;28;20722;-66
2022/06/20 04:49:46;;;;;;;5.40;3.15;;;19.40;99.90;;;;;;4936946;28;20215;-68
2022/06/20 04:52:23;;;;;;;4.53;3.03;;;19.40;99.90;;;;;;4937252;28;20251;-69
2022/06/20 04:54:51;;;;;;;9.55;2.70;;;19.50;99.90;;;;;;4936035;28;20257;-67
2022/06/20 04:57:19;;;;;;;6.43;2.67;;;19.60;99.90;;;;;;4935871;28;20231;-67
2022/06/20 04:59:47;;;;;;;3.90;2.25;;;19.50;99.90;;;;;;4932141;28;20233;-67
2022/06/20 05:02:20;;;;;;;4.55;2.22;;;19.60;99.90;;;;;;4936077;28;21529;-66
2022/06/20 05:04:50;;;;;;;7.28;2.80;;;19.50;99.90;;;;;;4936233;28;20275;-67
2022/06/20 05:07:23;;;;;;;6.80;2.75;;;19.60;99.90;;;;;;4934237;28;20215;-67
2022/06/20 05:09:58;;;;;;;4.78;2.85;;;19.70;99.90;;;;;;4931162;28;20314;-69
2022/06/20 05:12:34;;;;;;;3.60;2.53;;;19.60;99.90;;;;;;4934587;28;20330;-66
2022/06/20 05:15:08;;;;;;;5.32;2.72;;;19.70;99.90;;;;;;4937330;28;20322;-67
2022/06/20 05:17:39;;;;;;;4.80;2.38;;;19.70;99.90;;;;;;4936922;28;20203;-67
2022/06/20 05:20:16;;;;;;;4.22;2.22;;;19.70;99.90;;;;;;4942247;28;20226;-66
2022/06/20 05:22:49;;;;;;;7.00;4.32;;;19.80;99.90;;;;;;4940021;28;21099;-67
2022/06/20 05:25:22;;;;;;;5.00;3.90;;;19.90;99.90;;;;;;4940507;28;20211;-67
2022/06/20 05:27:53;;;;;;;9.52;4.10;;;20.00;99.90;;;;;;4935612;28;20568;-69
2022/06/20 05:30:24;;;;;;;6.68;3.85;;;20.10;99.90;;;;;;4937803;28;20207;-69
2022/06/20 05:32:59;;;;;;;10.43;3.80;;;20.10;99.90;;;;;;4948871;28;20353;-67
2022/06/20 05:35:33;;;;;;;6.45;4.07;;;20.10;99.90;;;;;;4958113;28;20293;-66
2022/06/20 05:38:05;;;;;;;5.35;3.15;;;20.10;99.90;;;;;;4957607;28;20310;-67
2022/06/20 05:40:40;;;;;;;9.75;3.90;;;20.10;99.90;;;;;;4960483;28;20210;-67
2022/06/20 05:43:15;;;;;;;4.97;2.85;;;20.10;99.90;;;;;;4955409;28;20707;-67
2022/06/20 05:45:43;;;;;;;7.32;2.67;;;20.00;99.90;;;;;;4958030;28;20213;-66
2022/06/20 05:48:13;;;;;;;6.32;2.90;;;20.00;99.90;;;;;;4952781;28;20208;-66
2022/06/20 05:50:48;;;;;;;7.70;3.53;;;20.10;99.90;;;;;;4957569;28;20218;-66
2022/06/20 05:53:24;;;;;;;6.10;2.67;;;20.30;99.90;;;;;;4956316;28;20713;-67
2022/06/20 05:55:55;;;;;;;7.03;2.97;;;20.40;99.90;;;;;;4958244;28;20202;-67
2022/06/20 05:58:27;;;;;;;7.50;2.90;;;20.60;99.90;;;;;;4953885;28;20367;-67
2022/06/20 06:00:58;;;;;;;5.93;3.38;;;20.70;99.90;;;;;;4957821;28;20314;-67
2022/06/20 06:03:32;;;;;;;6.97;2.80;;;20.60;99.90;;;;;;4956455;28;20234;-66
2022/06/20 06:06:04;;;;;;;12.15;2.83;;;20.70;99.90;;;;;;4956119;28;20210;-66
2022/06/20 06:08:39;;;;;;;7.57;3.05;;;20.70;99.90;;;;;;4955530;28;20211;-67
2022/06/20 06:11:22;;;;;;;7.28;3.35;;;20.60;99.90;;;;;;4957133;28;20298;-67
2022/06/20 06:13:54;;;;;;;6.75;2.83;;;20.60;99.90;;;;;;4956926;28;20198;-66
2022/06/20 06:16:48;;;;;;;12.60;4.32;;;20.60;99.90;;;;;;4958909;28;20221;-66
2022/06/20 06:19:26;;;;;;;5.65;2.47;;;20.60;99.90;;;;;;4952772;28;20203;-67
2022/06/20 06:21:56;;;;;;;5.45;3.03;;;20.60;99.90;;;;;;4956358;28;20305;-65
2022/06/20 06:24:35;;;;;;;8.60;3.35;;;20.60;99.90;;;;;;4957715;28;20230;-67
2022/06/20 06:27:05;;;;;;;6.47;3.33;;;20.60;99.90;;;;;;4957729;28;20250;-66
2022/06/20 06:29:40;;;;;;;5.90;2.35;;;20.60;99.90;;;;;;4951849;28;20313;-66
2022/06/20 06:32:15;;;;;;;9.98;3.70;;;20.60;99.90;;;;;;4954406;28;20285;-66
2022/06/20 06:34:55;;;;;;;9.88;3.88;;;20.60;99.90;;;;;;4951766;28;20202;-68
2022/06/20 06:37:27;;;;;;;5.57;2.85;;;20.60;99.90;;;;;;4977940;28;20687;-67
2022/06/20 06:40:02;;;;;;;7.35;2.63;;;20.70;99.90;;;;;;4980071;28;20202;-68
2022/06/20 06:42:31;;;;;;;12.68;4.03;;;20.70;99.90;;;;;;4972972;28;20230;-66
2022/06/20 06:45:00;;;;;;;8.70;3.38;;;20.70;99.90;;;;;;4973315;28;20305;-68
2022/06/20 06:47:38;;;;;;;7.28;2.90;;;20.80;99.90;;;;;;4973579;28;20656;-69
2022/06/20 06:50:27;;;;;;;7.65;2.78;;;20.50;99.90;;;;;;4973747;28;20695;-69
2022/06/20 06:52:59;;;;;;;7.53;2.95;;;20.10;99.90;;;;;;4972248;28;20642;-69
2022/06/20 06:55:33;;;;;;;2.15;1.75;;;19.80;99.90;;;;;;4967411;28;20242;-68
2022/06/20 06:58:07;;;;;;;7.13;3.15;;;19.50;99.90;;;;;;4967711;28;20211;-68
2022/06/20 07:00:39;;;;;;;8.65;2.80;;;19.30;99.90;;;;;;4973047;28;20203;-69
2022/06/20 07:03:19;;;;;;;7.75;3.03;;;19.20;99.90;;;;;;4972620;28;20244;-67
2022/06/20 07:05:53;;;;;;;20.20;4.53;;;19.10;99.90;;;;;;4973286;28;20226;-67
2022/06/20 07:08:45;;;;;;;7.05;3.97;;;19.20;99.90;;;;;;4955980;28;20207;-68
2022/06/20 07:11:21;;;;;;;10.73;3.90;;;19.30;99.90;;;;;;4973301;28;20249;-68
2022/06/20 07:13:57;;;;;;;9.18;3.85;;;19.40;99.90;;;;;;4973016;28;20751;-69
2022/06/20 07:16:32;;;;;;;8.10;2.97;;;19.30;99.90;;;;;;4973513;28;20229;-67
2022/06/20 07:19:01;;;;;;;4.18;2.90;;;19.40;99.90;;;;;;4973099;28;20202;-69
2022/06/20 07:21:32;;;;;;;6.72;2.67;;;19.50;99.90;;;;;;4972644;28;20613;-69
2022/06/20 07:24:04;;;;;;;4.32;2.45;;;19.40;99.90;;;;;;4975247;28;20250;-69
2022/06/20 07:26:36;;;;;;;5.82;3.80;;;19.40;99.90;;;;;;4974522;28;20676;-69
2022/06/20 07:29:17;;;;;;;5.55;2.83;;;19.40;99.90;;;;;;4972788;28;20198;-69
2022/06/20 07:31:49;;;;;;;3.65;2.40;;;19.50;99.90;;;;;;4972308;28;20231;-68
2022/06/20 07:34:28;;;;;;;5.35;2.97;;;19.50;99.90;;;;;;4972501;28;20202;-69
2022/06/20 07:37:00;;;;;;;4.38;2.33;;;19.50;99.90;;;;;;4972653;28;20261;-69
2022/06/20 07:39:32;;;;;;;4.82;2.75;;;19.60;99.90;;;;;;4954902;28;20210;-68
2022/06/20 07:42:07;;;;;;;4.35;2.45;;;19.60;99.90;;;;;;4971592;28;20488;-67
2022/06/20 07:44:39;;;;;;;11.02;3.00;;;19.60;99.90;;;;;;4972581;28;20222;-69
2022/06/20 07:47:12;;;;;;;3.53;2.15;;;19.70;99.90;;;;;;4972634;28;20221;-66
2022/06/20 07:49:45;;;;;;;4.68;2.47;;;19.70;99.90;;;;;;4972466;28;20914;-69
2022/06/20 07:52:21;;;;;;;6.03;3.22;;;19.60;99.90;;;;;;4971130;28;20774;-68
2022/06/20 07:54:52;;;;;;;4.32;2.70;;;19.60;99.90;;;;;;4972715;28;20710;-68
2022/06/20 07:57:25;;;;;;;6.57;2.55;;;19.60;99.90;;;;;;4972235;28;20663;-67
2022/06/20 07:59:58;;;;;;;4.80;2.33;;;19.60;99.90;;;;;;4972292;28;20206;-68
2022/06/20 08:02:32;;;;;;;5.47;2.13;;;19.70;99.90;;;;;;4971176;28;20222;-69
2022/06/20 08:05:03;;;;;;;4.85;2.53;;;19.70;99.90;;;;;;4972340;28;20226;-69
2022/06/20 08:07:38;;;;;;;3.05;1.65;;;19.90;99.90;;;;;;4972701;28;20625;-69
2022/06/20 08:10:10;;;;;;;2.88;1.88;;;19.90;99.90;;;;;;4971746;28;20209;-69
2022/06/20 08:13:03;;;;;;;4.53;2.00;;;19.70;99.90;;;;;;4970878;28;20222;-70
2022/06/20 08:15:34;;;;;;;8.10;1.80;;;19.80;99.90;;;;;;4972328;28;20202;-68
2022/06/20 08:18:03;;;;;;;3.47;2.28;;;19.70;99.90;;;;;;4972271;28;20238;-70
2022/06/20 08:20:36;;;;;;;2.28;2.10;;;19.60;99.90;;;;;;4971913;28;20206;-69
2022/06/20 08:23:12;;;;;;;1.90;1.80;;;19.30;99.90;;;;;;4967195;28;20583;-67
2022/06/20 08:25:46;;;;;;;2.55;1.80;;;18.90;99.90;;;;;;4978071;28;20230;-70
2022/06/20 08:28:19;;;;;;;1.40;1.30;;;18.80;99.90;;;;;;4972136;28;20583;-69
2022/06/20 08:30:52;;;;;;;2.78;1.50;;;18.60;99.90;;;;;;4972160;28;20229;-68
2022/06/20 08:33:26;;;;;;;1.58;1.48;;;18.50;99.90;;;;;;4971107;28;20715;-69
2022/06/20 08:35:57;;;;;;;1.38;1.27;;;18.40;99.90;;;;;;4971617;28;20245;-67
2022/06/20 08:38:30;;;;;;;1.17;1.00;;;18.40;99.90;;;;;;4972020;28;20616;-70
2022/06/20 08:41:16;;;;;;;0.80;0.80;;;18.20;99.90;;;;;;4972154;28;20241;-70
2022/06/20 08:44:37;;;;;;;1.52;0.80;;;18.10;99.90;;;;;;4970939;28;20762;-70
2022/06/20 08:47:43;;;;;;;2.40;0.90;;;18.20;99.90;;;;;;4971703;28;20218;-70
2022/06/20 08:50:41;;;;;;;1.67;0.80;;;18.20;99.90;;;;;;4971792;28;20198;-70
2022/06/20 08:53:48;;;;;;;1.17;0.80;;;18.20;99.90;;;;;;4972273;28;20218;-71
2022/06/20 08:56:27;;;;;;;1.38;1.17;;;18.20;99.90;;;;;;4973828;28;20202;-70
2022/06/20 08:59:08;;;;;;;0.80;0.70;;;18.10;99.90;;;;;;4978309;28;20202;-70
2022/06/20 09:01:44;;;;;;;1.10;0.77;;;18.10;99.90;;;;;;4975525;28;20273;-70
2022/06/20 09:04:52;;;;;;;0.90;0.80;;;18.10;99.90;;;;;;4974994;28;20206;-70
2022/06/20 09:07:38;;;;;;;1.80;0.98;;;18.00;99.90;;;;;;4975022;28;21015;-70
2022/06/20 09:10:30;;;;;;;0.75;0.75;;;18.00;99.90;;;;;;4975274;28;20672;-70
2022/06/20 09:13:33;;;;;;;0.90;0.90;;;17.90;99.90;;;;;;4970163;28;20218;-69
2022/06/20 09:16:10;;;;;;;4.45;1.33;;;17.90;99.90;;;;;;4968751;28;20226;-69
2022/06/20 09:18:54;;;;;;;2.15;1.40;;;17.70;99.90;;;;;;4974818;28;20206;-68
2022/06/20 09:21:30;;;;;;;1.13;0.98;;;17.70;99.90;;;;;;4975381;28;20265;-68
2022/06/20 09:24:15;;;;;;;2.08;1.30;;;17.80;99.90;;;;;;4973398;28;20244;-68
2022/06/20 09:26:53;;;;;;;1.50;1.40;;;17.80;99.90;;;;;;4975961;28;20603;-69
2022/06/20 09:29:41;;;;;;;1.90;1.40;;;17.90;99.90;;;;;;4969856;28;20215;-69
2022/06/20 09:32:47;;;;;;;1.30;1.20;;;17.80;99.90;;;;;;4974496;28;20277;-67
2022/06/20 09:35:45;;;;;;;1.83;1.73;;;17.80;99.90;;;;;;4957454;28;20210;-69
2022/06/20 09:38:29;;;;;;;1.60;1.50;;;17.80;99.90;;;;;;4974558;28;20242;-67
2022/06/20 09:41:04;;;;;;;1.52;1.42;;;17.80;99.90;;;;;;4974606;28;20265;-68
2022/06/20 09:43:42;;;;;;;1.80;1.70;;;17.90;99.90;;;;;;4973629;28;20222;-68
2022/06/20 09:46:18;;;;;;;2.30;2.20;;;17.80;99.90;;;;;;4974572;28;20226;-68
2022/06/20 09:48:54;;;;;;;1.90;1.80;;;17.80;99.90;;;;;;4975133;28;20249;-68
2022/06/20 09:51:32;;;;;;;2.63;2.50;;;17.70;99.90;;;;;;4974537;28;20202;-69
2022/06/20 09:54:10;;;;;;;2.08;1.98;;;17.70;99.90;;;;;;4973208;28;20257;-69
2022/06/20 09:56:48;;;;;;;2.92;2.60;;;17.70;99.90;;;;;;4974565;28;20207;-69
2022/06/20 09:59:26;;;;;;;2.30;2.20;;;17.70;99.90;;;;;;4974750;28;20206;-68
2022/06/20 10:02:02;;;;;;;2.63;2.42;;;17.80;99.90;;;;;;4974210;28;20230;-65
2022/06/20 10:04:51;;;;;;;2.50;2.30;;;17.90;99.90;;;;;;4973868;28;20241;-65
2022/06/20 10:07:45;;;;;;;1.70;1.60;;;17.50;99.90;;;;;;4974347;28;20198;-69
2022/06/20 10:10:18;;;;;;;1.50;1.40;;;17.50;99.90;;;;;;4974369;28;20203;-68
2022/06/20 10:12:51;;;;;;;1.38;1.27;;;17.50;99.90;;;;;;4973426;28;20250;-67
2022/06/20 10:15:36;;;;;;;1.35;1.27;;;17.60;99.90;;;;;;4968759;28;20668;-69
2022/06/20 10:18:21;;;;;;;3.75;2.42;;;17.40;99.90;;;;;;4974309;28;20616;-68
2022/06/20 10:20:54;;;;;;;1.30;1.20;;;17.40;99.90;;;;;;4974145;28;20664;-69
2022/06/20 10:23:38;;;;;;;7.20;6.50;;;17.40;99.90;;;;;;4973975;28;20228;-68
2022/06/20 10:26:23;;;;;;;3.05;2.80;;;17.30;99.90;;;;;;4973413;28;20223;-68
2022/06/20 10:28:58;;;;;;;3.90;3.60;;;17.40;99.90;;;;;;4974090;28;20198;-67
2022/06/20 10:31:40;;;;;;;1.10;1.00;;;17.40;99.90;;;;;;4973635;28;20687;-68
2022/06/20 10:34:13;;;;;;;1.63;1.13;;;17.50;99.90;;;;;;4934923;29;20283;-69
2022/06/20 10:36:51;;;;;;;0.88;0.88;;;17.40;99.90;;;;;;4935164;29;20200;-69
2022/06/20 10:39:35;;;;;;;2.78;2.53;;;17.50;99.90;;;;;;4935464;29;20200;-69
2022/06/20 10:42:24;;;;;;;1.20;1.10;;;17.30;99.90;;;;;;4934735;29;20240;-67
2022/06/20 10:45:17;;;;;;;1.65;1.40;;;17.30;99.90;;;;;;4935268;29;20295;-68
2022/06/20 10:47:58;;;;;;;1.33;1.00;;;17.30;99.90;;;;;;4935274;29;20242;-69
2022/06/20 10:50:37;;;;;;;1.58;1.17;;;17.30;99.90;;;;;;4935402;29;20204;-68
2022/06/20 10:53:18;;;;;;;1.25;1.00;;;17.50;99.90;;;;;;4933945;29;20224;-69
2022/06/20 10:55:55;;;;;;;1.50;1.40;;;17.40;99.90;;;;;;4932715;29;20215;-68
2022/06/20 10:58:42;;;;;;;1.20;1.10;;;17.50;99.90;;;;;;4934837;29;20204;-69
2022/06/20 11:01:17;;;;;;;1.75;0.88;;;17.50;99.90;;;;;;4934843;29;20211;-69
2022/06/20 11:04:04;;;;;;;1.70;1.42;;;17.30;99.90;;;;;;4934201;29;20252;-69
2022/06/20 11:06:45;;;;;;;1.25;0.90;;;17.30;99.90;;;;;;4930094;29;20231;-69
2022/06/20 11:09:26;;;;;;;1.13;1.02;;;17.40;99.90;;;;;;4934689;29;20569;-69
2022/06/20 11:12:04;;;;;;;1.60;1.42;;;17.20;99.90;;;;;;4934313;29;20228;-65
2022/06/20 11:14:41;;;;;;;1.77;1.20;;;17.20;99.90;;;;;;4934789;29;20294;-69
2022/06/20 11:17:17;;;;;;;1.20;1.10;;;17.10;99.90;;;;;;4928566;29;20587;-69
2022/06/20 11:19:56;;;;;;;1.00;0.90;;;16.90;99.90;;;;;;4934552;29;20623;-68
2022/06/20 11:22:36;;;;;;;1.50;1.00;;;16.80;99.90;;;;;;4933663;29;20224;-68
2022/06/20 11:25:18;;;;;;;1.02;0.90;;;16.80;99.90;;;;;;4937800;29;20250;-68
2022/06/20 11:28:19;;;;;;;1.98;1.10;;;16.80;99.90;;;;;;4935076;29;20685;-68
2022/06/20 11:30:56;;;;;;;0.90;0.77;;;16.90;99.90;;;;;;4927699;29;20224;-68
2022/06/20 11:36:40;;;;;;;1.10;0.70;;;17.00;99.90;;;;;;4969353;28;20238;-69
2022/06/20 11:39:24;;;;;;;7.28;0.98;;;17.00;99.90;;;;;;4972593;28;20289;-68
2022/06/20 11:42:04;;;;;;;1.67;0.70;;;17.00;99.90;;;;;;4972601;28;20258;-67
2022/06/20 11:44:49;;;;;;;0.70;0.60;;;16.90;99.90;;;;;;4972704;28;20907;-68
2022/06/20 11:47:45;;;;;;;1.10;0.80;;;16.90;99.90;;;;;;4972469;28;20293;-69
2022/06/20 11:50:30;;;;;;;0.90;0.70;;;16.80;99.90;;;;;;4972708;28;20257;-67
2022/06/20 11:53:12;;;;;;;0.90;0.80;;;16.80;99.90;;;;;;4971294;28;20230;-69
2022/06/20 11:55:47;;;;;;;0.80;0.70;;;16.70;99.90;;;;;;4975353;28;20393;-69
2022/06/20 11:58:21;;;;;;;1.00;0.73;;;16.80;99.90;;;;;;4972334;28;20206;-69
2022/06/20 12:00:54;;;;;;;1.88;0.70;;;16.80;99.90;;;;;;4972868;28;20791;-68
2022/06/20 12:03:30;;;;;;;0.80;0.63;;;16.90;99.90;;;;;;4971400;28;20702;-67
2022/06/20 12:06:06;;;;;;;3.25;0.70;;;16.90;99.90;;;;;;4972427;28;20198;-68
2022/06/20 12:08:44;;;;;;;0.85;0.70;;;17.00;99.90;;;;;;4972371;28;20202;-69
2022/06/20 12:11:37;;;;;;;1.25;0.88;;;17.10;99.90;;;;;;4972378;28;20202;-69
2022/06/20 12:14:19;;;;;;;0.93;0.60;;;17.10;99.90;;;;;;4971162;28;20257;-69
2022/06/20 12:16:56;;;;;;;1.17;0.85;;;17.10;99.90;;;;;;4972105;28;20257;-68
2022/06/20 12:25:33;;;;;;;55.53;5.60;;;17.50;99.90;;;;;;4971971;28;20214;-69
2022/06/20 12:28:01;;;;;;;1.50;0.70;;;17.50;99.90;;;;;;4971653;28;20222;-69
2022/06/20 12:30:31;;;;;;;1.77;0.70;;;17.30;99.90;;;;;;4971965;28;20226;-68
2022/06/20 12:33:01;;;;;;;2.58;0.90;;;17.10;99.90;;;;;;4970833;28;20783;-69
2022/06/20 12:35:35;;;;;;;2.13;0.80;;;16.90;99.90;;;;;;4972077;28;20261;-69
2022/06/20 12:38:10;;;;;;;1.95;0.85;;;16.80;99.90;;;;;;4971869;28;20221;-69
2022/06/20 12:40:45;;;;;;;1.30;0.68;;;16.80;99.90;;;;;;4972074;28;20194;-69
2022/06/20 12:43:17;;;;;;;0.80;0.60;;;16.80;99.90;;;;;;4971295;28;20702;-70
2022/06/20 12:46:02;;;;;;;4.20;0.85;;;16.80;99.90;;;;;;4972629;28;20202;-69
2022/06/20 12:48:42;;;;;;;0.93;0.60;;;16.70;99.90;;;;;;4965115;28;20237;-68
2022/06/20 12:51:19;;;;;;;1.80;0.75;;;16.70;99.90;;;;;;4971691;28;20233;-69
2022/06/20 12:54:00;;;;;;;0.70;0.50;;;16.80;99.90;;;;;;4970489;28;20887;-69
2022/06/20 12:56:45;;;;;;;3.30;0.70;;;16.80;99.90;;;;;;4975631;28;20222;-68
2022/06/20 12:59:36;;;;;;;1.73;0.60;;;16.90;99.90;;;;;;4964003;28;20214;-69
2022/06/20 13:02:13;;;;;;;0.70;0.60;;;17.00;99.90;;;;;;4970809;28;20254;-68
2022/06/20 13:05:29;;;;;;;1.38;0.70;;;16.90;99.90;;;;;;4971818;28;20206;-69
2022/06/20 13:08:24;;;;;;;2.45;0.80;;;16.80;99.90;;;;;;4971406;28;20317;-67
2022/06/20 13:11:03;;;;;;;3.35;0.80;;;16.90;99.90;;;;;;4971512;28;20680;-69
2022/06/20 13:13:50;;;;;;;2.65;0.90;;;17.00;99.90;;;;;;4970572;28;20234;-69
2022/06/20 13:16:27;;;;;;;2.75;0.70;;;17.10;99.90;;;;;;4971659;28;20297;-69
2022/06/20 13:19:19;;;;;;;2.55;0.80;;;17.30;99.90;;;;;;4971467;28;20195;-69
2022/06/20 13:21:50;;;;;;;2.60;0.60;;;17.40;99.90;;;;;;4971368;28;20285;-69
2022/06/20 13:24:30;;;;;;;2.25;0.68;;;17.50;99.90;;;;;;4970417;28;20230;-68
2022/06/20 13:27:16;;;;;;;0.90;0.60;;;17.60;99.90;;;;;;4971392;28;20203;-70
2022/06/20 13:29:54;;;;;;;1.73;0.70;;;17.50;99.90;;;;;;4971580;28;20684;-68
2022/06/20 13:32:29;;;;;;;0.75;0.60;;;17.40;99.90;;;;;;4970231;28;20682;-69
2022/06/20 13:35:03;;;;;;;1.75;0.80;;;17.30;99.90;;;;;;4971321;28;20281;-69
2022/06/20 13:37:49;;;;;;;1.90;0.70;;;17.20;99.90;;;;;;4971261;28;20615;-67
2022/06/20 13:40:33;;;;;;;1.42;0.70;;;17.30;99.90;;;;;;4973038;28;20249;-68
2022/06/20 13:43:10;;;;;;;1.13;0.68;;;17.20;99.90;;;;;;4973857;28;20227;-69
2022/06/20 13:45:48;;;;;;;1.42;0.65;;;17.30;99.90;;;;;;4974924;28;20625;-69
2022/06/20 13:48:23;;;;;;;2.40;0.75;;;17.50;99.90;;;;;;4974636;28;20589;-69